Time;durP1;ratioP1;P1;durP2;ratioP2;P2;SDS_P1;SDS_P2;PMS_P1;PMS_P2;Temp;Humidity;BMP_temperature;BMP_pressure;BME280_temperature;BME280_humidity;BME280_pressure;Samples;Min_cycle;Max_cycle;Signal;HPM_P1;HPM_P2
2021/05/23 00:00:26;;;;;;;2.20;1.40;;;9.80;99.90;9.20;96549.00;;;;5053619;28;20411;-52
2021/05/23 00:03:16;;;;;;;1.80;1.70;;;9.80;99.90;9.10;96544.00;;;;5062427;28;20224;-52
2021/05/23 00:06:05;;;;;;;2.13;1.20;;;9.80;99.90;9.10;96541.00;;;;5063811;28;20274;-50
2021/05/23 00:08:53;;;;;;;1.40;1.30;;;9.80;99.90;9.10;96548.00;;;;5066022;28;20558;-52
2021/05/23 00:11:41;;;;;;;1.80;1.60;;;9.80;99.90;9.00;96551.00;;;;5065583;28;20586;-52
2021/05/23 00:14:31;;;;;;;2.73;1.57;;;9.80;99.90;9.00;96546.00;;;;5065550;28;20376;-54
2021/05/23 00:17:20;;;;;;;1.20;1.10;;;9.70;99.90;9.00;96537.00;;;;5065630;28;20574;-51
2021/05/23 00:20:10;;;;;;;1.57;1.47;;;9.70;99.90;9.00;96534.00;;;;5066335;28;20208;-51
2021/05/23 00:22:58;;;;;;;2.77;1.37;;;9.70;99.90;9.00;96523.00;;;;5065460;28;20224;-54
2021/05/23 00:25:47;;;;;;;2.53;1.30;;;9.70;99.90;9.10;96529.00;;;;5066171;28;20199;-54
2021/05/23 00:28:36;;;;;;;1.40;1.30;;;9.70;99.90;9.00;96539.00;;;;5067483;28;20679;-52
2021/05/23 00:31:25;;;;;;;1.80;1.30;;;9.70;99.90;9.00;96548.00;;;;5065468;28;20196;-51
2021/05/23 00:34:13;;;;;;;2.70;1.67;;;9.70;99.90;9.00;96531.00;;;;5065256;28;20893;-51
2021/05/23 00:37:02;;;;;;;1.40;1.30;;;9.60;99.90;9.00;96531.00;;;;5065654;28;20577;-52
2021/05/23 00:39:51;;;;;;;2.13;1.60;;;9.70;99.90;8.90;96524.00;;;;5066474;28;20941;-51
2021/05/23 00:42:39;;;;;;;1.53;1.10;;;9.70;99.90;9.00;96528.00;;;;5065064;28;20231;-54
2021/05/23 00:45:28;;;;;;;3.33;1.30;;;9.70;99.90;9.00;96535.00;;;;5064994;28;20196;-50
2021/05/23 00:48:19;;;;;;;1.33;1.23;;;9.70;99.90;9.00;96526.00;;;;5064952;28;20200;-51
2021/05/23 00:51:07;;;;;;;3.70;1.37;;;9.60;99.90;9.00;96525.00;;;;5065489;28;20203;-55
2021/05/23 00:53:55;;;;;;;2.93;1.30;;;9.70;99.90;8.90;96514.00;;;;5065359;28;20227;-52
2021/05/23 00:56:44;;;;;;;3.33;1.60;;;9.70;99.90;8.90;96506.00;;;;5066558;28;20238;-54
2021/05/23 00:59:33;;;;;;;1.37;1.27;;;9.60;99.90;9.00;96504.00;;;;5066416;28;20208;-55
2021/05/23 01:02:45;;;;;;;1.60;1.50;;;9.60;99.90;8.90;96510.00;;;;5064787;28;20219;-53
2021/05/23 01:05:35;;;;;;;6.80;4.27;;;9.60;99.90;8.90;96506.00;;;;5054316;28;20264;-56
2021/05/23 01:08:25;;;;;;;6.80;5.97;;;9.60;99.90;8.90;96509.00;;;;5065829;28;20609;-55
2021/05/23 01:12:25;;;;;;;7.30;5.67;;;9.60;99.90;8.80;96503.00;;;;5065495;28;20200;-53
2021/05/23 01:15:14;;;;;;;5.43;4.03;;;9.60;99.90;8.90;96501.00;;;;5066203;28;20679;-51
2021/05/23 01:18:05;;;;;;;2.67;2.27;;;9.50;99.90;8.80;96507.00;;;;5065799;28;20208;-53
2021/05/23 01:20:58;;;;;;;1.63;1.53;;;9.60;99.90;8.80;96507.00;;;;5065865;28;20204;-54
2021/05/23 01:23:54;;;;;;;2.07;1.80;;;9.50;99.90;8.80;96495.00;;;;5065006;28;20227;-55
2021/05/23 01:26:48;;;;;;;2.10;1.90;;;9.50;99.90;8.80;96491.00;;;;5055676;28;20201;-60
2021/05/23 01:29:39;;;;;;;2.20;2.00;;;9.50;99.90;8.70;96505.00;;;;5050800;28;20683;-53
2021/05/23 01:32:27;;;;;;;1.60;1.50;;;9.50;99.90;8.80;96498.00;;;;5065230;28;20228;-56
2021/05/23 01:35:21;;;;;;;5.37;1.50;;;9.50;99.90;8.80;96503.00;;;;5064348;28;20227;-56
2021/05/23 01:38:13;;;;;;;2.43;2.23;;;9.50;99.90;8.90;96495.00;;;;5065299;28;20199;-52
2021/05/23 01:41:05;;;;;;;2.77;2.53;;;9.50;99.90;8.90;96485.00;;;;5065387;28;20593;-54
2021/05/23 01:43:55;;;;;;;3.50;2.30;;;9.50;99.90;8.90;96484.00;;;;5069030;28;20240;-53
2021/05/23 01:46:44;;;;;;;2.23;2.03;;;9.50;99.90;8.90;96484.00;;;;5068229;28;20675;-54
2021/05/23 01:49:32;;;;;;;6.40;2.20;;;9.50;99.90;8.90;96486.00;;;;5067473;28;20219;-55
2021/05/23 01:52:21;;;;;;;2.57;1.67;;;9.50;99.90;8.80;96485.00;;;;5068704;28;20230;-54
2021/05/23 01:55:11;;;;;;;2.23;1.87;;;9.60;99.90;8.70;96486.00;;;;5068325;28;20207;-55
2021/05/23 01:58:00;;;;;;;1.97;1.70;;;9.50;99.90;8.80;96472.00;;;;5068300;28;20211;-53
2021/05/23 02:00:51;;;;;;;1.80;1.50;;;9.50;99.90;8.90;96476.00;;;;5068801;28;20212;-54
2021/05/23 02:03:40;;;;;;;1.60;1.33;;;9.50;99.90;9.00;96466.00;;;;5060158;28;20227;-56
2021/05/23 02:06:28;;;;;;;2.60;1.57;;;9.50;99.90;8.90;96460.00;;;;5068809;28;20199;-55
2021/05/23 02:09:17;;;;;;;3.63;1.70;;;9.50;99.90;8.90;96461.00;;;;5069896;28;20663;-54
2021/05/23 02:12:07;;;;;;;2.07;1.77;;;9.60;99.90;8.90;96471.00;;;;5068288;28;20208;-54
2021/05/23 02:14:55;;;;;;;2.50;1.40;;;9.60;99.90;8.90;96461.00;;;;5069534;28;20210;-53
2021/05/23 02:17:47;;;;;;;1.67;1.50;;;9.50;99.90;8.80;96468.00;;;;5069454;28;20430;-54
2021/05/23 02:20:37;;;;;;;3.13;1.60;;;9.50;99.90;8.90;96450.00;;;;5068111;28;20214;-55
2021/05/23 02:23:26;;;;;;;1.40;1.30;;;9.50;99.90;9.00;96453.00;;;;5067657;28;20224;-56
2021/05/23 02:26:15;;;;;;;1.77;1.67;;;9.60;99.90;9.00;96451.00;;;;5067987;28;20211;-52
2021/05/23 02:29:03;;;;;;;1.63;1.53;;;9.60;99.90;8.90;96454.00;;;;5066969;28;20196;-50
2021/05/23 02:31:51;;;;;;;3.10;1.67;;;9.60;99.90;8.70;96454.00;;;;5067367;28;20212;-54
2021/05/23 02:34:48;;;;;;;1.70;1.60;;;9.60;99.90;8.70;96447.00;;;;5068843;28;20196;-53
2021/05/23 02:37:36;;;;;;;7.20;1.80;;;9.60;99.90;8.60;96456.00;;;;5067749;28;20588;-52
2021/05/23 02:40:28;;;;;;;3.80;2.13;;;9.50;99.90;8.60;96462.00;;;;5067423;28;20212;-51
2021/05/23 02:43:19;;;;;;;2.83;2.03;;;9.40;99.90;8.60;96467.00;;;;5067641;28;20219;-52
2021/05/23 02:46:07;;;;;;;5.13;1.97;;;9.40;99.90;8.60;96461.00;;;;5048747;28;20254;-51
2021/05/23 02:48:58;;;;;;;2.00;1.80;;;9.40;99.90;8.70;96460.00;;;;5067041;28;20215;-51
2021/05/23 02:51:47;;;;;;;2.33;2.10;;;9.40;99.90;8.70;96461.00;;;;5067177;28;20208;-53
2021/05/23 02:54:36;;;;;;;2.07;1.90;;;9.40;99.90;8.70;96474.00;;;;5067480;28;20360;-51
2021/05/23 02:57:24;;;;;;;2.20;1.67;;;9.40;99.90;8.70;96478.00;;;;5065404;28;20592;-56
2021/05/23 03:00:16;;;;;;;2.33;1.60;;;9.40;99.90;8.70;96474.00;;;;5066426;28;20208;-53
2021/05/23 03:03:06;;;;;;;4.13;1.70;;;9.40;99.90;8.80;96486.00;;;;5058513;28;20258;-53
2021/05/23 03:05:54;;;;;;;3.83;1.97;;;9.40;99.90;8.90;96489.00;;;;5067217;28;20200;-54
2021/05/23 03:08:44;;;;;;;2.33;1.20;;;9.40;99.90;8.90;96488.00;;;;5066622;28;20207;-53
2021/05/23 03:11:32;;;;;;;2.23;1.97;;;9.40;99.90;8.90;96487.00;;;;5067512;28;20215;-51
2021/05/23 03:14:21;;;;;;;2.07;1.60;;;9.50;99.90;9.00;96487.00;;;;5066555;28;20246;-51
2021/05/23 03:17:09;;;;;;;3.53;1.70;;;9.50;99.90;9.00;96489.00;;;;5067373;28;20458;-53
2021/05/23 03:19:58;;;;;;;2.10;1.90;;;9.60;99.90;9.10;96472.00;;;;5066350;28;20203;-50
2021/05/23 03:22:50;;;;;;;1.90;1.80;;;9.60;99.90;9.10;96452.00;;;;5066343;28;20224;-49
2021/05/23 03:25:40;;;;;;;6.60;1.70;;;9.60;99.90;9.10;96447.00;;;;5066486;28;20204;-51
2021/05/23 03:28:28;;;;;;;2.43;1.77;;;9.70;99.90;9.00;96440.00;;;;5067739;28;20207;-49
2021/05/23 03:31:17;;;;;;;2.00;1.90;;;9.70;99.90;9.00;96447.00;;;;5065279;28;20215;-54
2021/05/23 03:34:05;;;;;;;2.23;1.63;;;9.70;99.90;8.90;96447.00;;;;5066315;28;20223;-52
2021/05/23 03:36:53;;;;;;;1.77;1.67;;;9.60;99.90;8.90;96457.00;;;;5068182;28;20211;-54
2021/05/23 03:39:42;;;;;;;2.00;1.80;;;9.60;99.90;8.60;96453.00;;;;5055331;28;20212;-54
2021/05/23 03:42:31;;;;;;;3.47;2.20;;;9.60;99.90;8.60;96457.00;;;;5056653;28;20222;-50
2021/05/23 03:45:22;;;;;;;2.00;1.90;;;10.20;99.90;8.60;96458.00;;;;5065667;28;20220;-51
2021/05/23 03:48:11;;;;;;;2.23;2.03;;;9.40;99.90;8.50;96472.00;;;;5065720;28;20204;-52
2021/05/23 03:50:59;;;;;;;4.20;2.33;;;9.40;99.90;8.50;96470.00;;;;5066454;28;20204;-54
2021/05/23 03:53:47;;;;;;;2.60;1.90;;;9.40;99.90;8.60;96467.00;;;;5065530;28;20227;-52
2021/05/23 03:56:36;;;;;;;2.10;1.90;;;9.30;99.90;8.60;96478.00;;;;5067930;28;20203;-53
2021/05/23 03:59:25;;;;;;;5.17;2.30;;;9.30;99.90;8.50;96490.00;;;;5066804;28;20603;-51
2021/05/23 04:02:13;;;;;;;2.07;1.97;;;9.30;99.90;8.60;96485.00;;;;5054838;28;20242;-52
2021/05/23 04:05:02;;;;;;;3.17;1.77;;;9.30;99.90;8.70;96484.00;;;;5063946;28;20231;-56
2021/05/23 04:07:51;;;;;;;2.53;2.30;;;9.30;99.90;8.80;96479.00;;;;5066584;28;20200;-56
2021/05/23 04:10:44;;;;;;;2.37;2.13;;;9.30;99.90;8.80;96484.00;;;;5065572;28;20564;-54
2021/05/23 04:13:34;;;;;;;5.67;2.13;;;9.40;99.90;8.90;96472.00;;;;5066880;28;20231;-52
2021/05/23 04:16:23;;;;;;;4.87;1.60;;;9.40;99.90;8.80;96479.00;;;;5066802;28;20667;-50
2021/05/23 04:19:12;;;;;;;4.20;1.70;;;9.50;99.90;8.80;96485.00;;;;5066024;28;20573;-53
2021/05/23 04:22:01;;;;;;;2.10;1.90;;;9.50;99.90;8.90;96477.00;;;;5066548;28;20596;-53
2021/05/23 04:24:49;;;;;;;1.97;1.63;;;9.50;99.90;8.80;96469.00;;;;5064444;28;20224;-50
2021/05/23 04:27:37;;;;;;;2.87;1.90;;;9.50;99.90;8.90;96453.00;;;;5064553;28;20212;-55
2021/05/23 04:30:28;;;;;;;2.40;2.07;;;9.50;99.90;9.00;96439.00;;;;5063933;28;20206;-56
2021/05/23 04:33:17;;;;;;;3.10;1.97;;;9.60;99.90;9.10;96439.00;;;;5065096;28;20223;-52
2021/05/23 04:36:06;;;;;;;2.23;2.03;;;9.60;99.90;9.00;96453.00;;;;5064533;28;20204;-50
2021/05/23 04:38:54;;;;;;;3.40;2.43;;;9.70;99.90;8.90;96462.00;;;;5066004;28;20215;-53
2021/05/23 04:41:42;;;;;;;2.47;2.27;;;9.60;99.90;9.00;96476.00;;;;5066121;28;20223;-52
2021/05/23 04:44:31;;;;;;;2.37;2.17;;;9.70;99.90;8.90;96485.00;;;;5066699;28;20227;-54
2021/05/23 04:47:19;;;;;;;1.93;1.77;;;9.70;99.90;9.00;96490.00;;;;5053392;28;20588;-52
2021/05/23 04:50:10;;;;;;;3.50;2.27;;;9.60;99.90;9.00;96505.00;;;;5064929;28;20200;-52
2021/05/23 04:52:59;;;;;;;4.00;2.70;;;9.60;99.90;9.00;96505.00;;;;5064640;28;20601;-51
2021/05/23 04:55:47;;;;;;;4.27;2.17;;;9.60;99.90;9.10;96506.00;;;;5064517;28;20212;-55
2021/05/23 04:58:35;;;;;;;4.77;2.07;;;9.70;99.90;9.20;96517.00;;;;5064123;28;20222;-49
2021/05/23 05:01:24;;;;;;;2.47;2.23;;;9.70;99.90;9.30;96529.00;;;;5061849;28;20199;-50
2021/05/23 05:04:12;;;;;;;2.83;2.13;;;9.80;99.90;9.40;96526.00;;;;5048577;28;20228;-55
2021/05/23 05:07:02;;;;;;;2.90;2.57;;;9.80;99.90;9.30;96525.00;;;;5053014;28;20721;-53
2021/05/23 05:09:50;;;;;;;3.97;2.00;;;9.90;99.90;9.20;96527.00;;;;5065314;28;20693;-51
2021/05/23 05:12:39;;;;;;;4.03;2.30;;;9.90;99.90;9.20;96528.00;;;;5065605;28;20223;-50
2021/05/23 05:15:27;;;;;;;1.83;1.73;;;9.90;99.90;9.30;96535.00;;;;5063987;28;20192;-52
2021/05/23 05:18:16;;;;;;;2.30;2.10;;;9.90;99.90;9.40;96519.00;;;;5067586;28;20669;-50
2021/05/23 05:21:05;;;;;;;2.33;1.90;;;9.90;99.90;9.50;96516.00;;;;5056792;28;20675;-50
2021/05/23 05:23:55;;;;;;;5.00;1.93;;;10.00;99.90;9.60;96504.00;;;;5068160;28;20265;-51
2021/05/23 05:26:44;;;;;;;2.57;2.37;;;10.10;99.90;9.80;96513.00;;;;5068384;28;20585;-56
2021/05/23 05:29:32;;;;;;;2.63;2.43;;;10.20;99.90;9.80;96522.00;;;;5067960;28;20219;-54
2021/05/23 05:32:21;;;;;;;2.03;1.90;;;10.30;99.90;9.80;96507.00;;;;5067188;28;20227;-50
2021/05/23 05:35:11;;;;;;;3.57;2.60;;;10.30;99.90;10.00;96495.00;;;;5059099;28;20208;-56
2021/05/23 05:37:59;;;;;;;3.90;2.30;;;10.40;99.90;10.10;96476.00;;;;5065670;28;20212;-55
2021/05/23 05:40:48;;;;;;;3.33;2.63;;;10.50;99.90;10.20;96484.00;;;;5068800;28;20216;-55
2021/05/23 05:43:37;;;;;;;3.87;3.30;;;10.60;99.90;10.30;96459.00;;;;5067820;28;20232;-53
2021/05/23 05:46:25;;;;;;;2.60;2.40;;;10.70;99.90;10.20;96461.00;;;;5055947;28;20200;-53
2021/05/23 05:49:13;;;;;;;2.70;2.50;;;10.70;99.90;10.30;96447.00;;;;5056131;28;20204;-56
2021/05/23 05:52:02;;;;;;;4.43;2.90;;;10.80;99.90;10.30;96465.00;;;;5062478;28;20212;-56
2021/05/23 05:54:50;;;;;;;6.70;3.20;;;10.80;99.90;10.30;96477.00;;;;5061717;28;20192;-54
2021/05/23 05:57:39;;;;;;;5.70;3.63;;;10.80;99.90;10.20;96485.00;;;;5068731;28;20702;-54
2021/05/23 06:00:27;;;;;;;7.27;4.60;;;10.80;99.90;10.10;96501.00;;;;5056700;28;20200;-56
2021/05/23 06:03:16;;;;;;;6.10;3.43;;;10.80;99.90;10.00;96480.00;;;;5059710;28;20737;-55
2021/05/23 06:06:05;;;;;;;3.93;3.40;;;10.70;99.90;10.10;96485.00;;;;5066710;28;20231;-54
2021/05/23 06:08:54;;;;;;;4.37;3.10;;;10.70;99.90;10.20;96488.00;;;;5069618;28;20599;-55
2021/05/23 06:11:43;;;;;;;9.57;4.30;;;10.70;99.90;10.30;96489.00;;;;5068232;28;20204;-56
2021/05/23 06:14:32;;;;;;;4.77;2.87;;;10.80;99.90;10.40;96484.00;;;;5067115;28;20663;-56
2021/05/23 06:17:20;;;;;;;2.90;2.60;;;11.30;99.90;10.50;96477.00;;;;5054348;28;20203;-53
2021/05/23 06:20:10;;;;;;;4.67;2.93;;;10.90;99.90;10.50;96474.00;;;;5057540;28;20196;-54
2021/05/23 06:22:59;;;;;;;4.40;3.70;;;11.00;99.90;10.50;96478.00;;;;5066136;28;20216;-53
2021/05/23 06:25:47;;;;;;;3.13;2.83;;;11.10;99.90;10.60;96475.00;;;;5066036;28;20219;-51
2021/05/23 06:28:36;;;;;;;3.47;2.80;;;11.10;99.90;10.60;96465.00;;;;5066138;28;20387;-50
2021/05/23 06:31:25;;;;;;;3.83;2.67;;;11.10;99.90;10.50;96488.00;;;;5066919;28;20717;-55
2021/05/23 06:34:13;;;;;;;3.33;3.03;;;11.10;99.90;10.30;96503.00;;;;5067473;28;20240;-57
2021/05/23 06:37:02;;;;;;;3.17;2.87;;;11.10;99.90;10.20;96526.00;;;;5067546;28;20219;-53
2021/05/23 06:39:50;;;;;;;3.40;3.10;;;11.00;99.90;10.20;96528.00;;;;5069949;28;20227;-56
2021/05/23 06:42:39;;;;;;;3.60;3.10;;;10.90;99.90;10.30;96524.00;;;;5066561;28;20219;-54
2021/05/23 06:45:28;;;;;;;4.63;3.43;;;10.90;99.90;10.30;96520.00;;;;5067133;28;20216;-55
2021/05/23 06:48:21;;;;;;;3.37;2.97;;;10.90;99.90;10.40;96521.00;;;;5068576;28;20208;-57
2021/05/23 06:51:10;;;;;;;8.03;3.17;;;10.90;99.90;10.50;96512.00;;;;5067524;28;20227;-56
2021/05/23 06:53:58;;;;;;;3.43;3.13;;;10.90;99.90;10.60;96512.00;;;;5068035;28;20224;-53
2021/05/23 06:56:46;;;;;;;4.40;3.83;;;11.00;99.90;10.80;96486.00;;;;5068143;28;20215;-56
2021/05/23 06:59:37;;;;;;;4.13;3.37;;;11.10;99.90;11.00;96488.00;;;;5068066;28;20235;-55
2021/05/23 07:02:26;;;;;;;5.23;3.70;;;11.20;99.90;11.00;96485.00;;;;5067168;28;20803;-55
2021/05/23 07:05:15;;;;;;;4.87;3.83;;;11.30;99.90;11.00;96488.00;;;;5055426;28;20231;-56
2021/05/23 07:08:04;;;;;;;4.40;3.13;;;11.40;99.90;11.00;96478.00;;;;5069654;28;20219;-53
2021/05/23 07:10:54;;;;;;;4.47;3.60;;;11.50;99.90;11.30;96475.00;;;;5072311;28;20234;-52
2021/05/23 07:13:43;;;;;;;3.77;3.37;;;11.60;99.90;11.60;96468.00;;;;5057217;28;20748;-53
2021/05/23 07:16:31;;;;;;;5.50;4.70;;;11.80;99.90;11.70;96475.00;;;;5055828;28;20812;-54
2021/05/23 07:19:20;;;;;;;7.03;5.87;;;11.90;99.90;11.80;96477.00;;;;5064087;28;20208;-56
2021/05/23 07:22:09;;;;;;;3.87;3.27;;;12.00;99.90;11.80;96462.00;;;;5066880;28;20200;-55
2021/05/23 07:24:57;;;;;;;3.57;3.23;;;12.10;99.90;11.90;96491.00;;;;5066128;28;20238;-52
2021/05/23 07:27:46;;;;;;;7.33;3.57;;;12.20;99.90;11.80;96495.00;;;;5066225;28;20196;-54
2021/05/23 07:30:35;;;;;;;5.03;2.63;;;12.20;99.90;11.70;96490.00;;;;5066947;28;20298;-54
2021/05/23 07:33:23;;;;;;;7.33;3.20;;;12.20;99.90;11.60;96491.00;;;;5055356;28;20236;-54
2021/05/23 07:36:12;;;;;;;3.07;2.67;;;12.20;99.90;11.50;96478.00;;;;5065919;28;20200;-55
2021/05/23 07:39:01;;;;;;;3.20;2.17;;;12.10;99.90;11.30;96472.00;;;;5064563;28;20703;-51
2021/05/23 07:41:49;;;;;;;2.87;2.53;;;12.00;99.90;11.10;96462.00;;;;5059678;28;20211;-56
2021/05/23 07:44:38;;;;;;;2.60;2.40;;;11.90;99.90;11.30;96463.00;;;;5051272;28;20220;-53
2021/05/23 07:47:26;;;;;;;4.97;3.03;;;11.90;99.90;11.20;96474.00;;;;5053716;28;20939;-54
2021/05/23 07:50:15;;;;;;;3.93;2.47;;;11.80;99.90;11.10;96486.00;;;;5062748;28;20203;-55
2021/05/23 07:53:04;;;;;;;3.67;3.20;;;11.80;99.90;11.30;96472.00;;;;5052504;28;20715;-55
2021/05/23 07:55:53;;;;;;;4.70;4.30;;;11.80;99.90;11.30;96473.00;;;;5062893;28;20899;-54
2021/05/23 07:58:41;;;;;;;3.80;3.37;;;11.80;99.90;11.10;96491.00;;;;5066539;28;20855;-52
2021/05/23 08:01:30;;;;;;;2.80;2.60;;;11.80;99.90;11.00;96508.00;;;;5066191;28;20886;-54
2021/05/23 08:04:18;;;;;;;3.47;3.10;;;11.70;99.90;11.20;96491.00;;;;5058864;28;20675;-55
2021/05/23 08:07:07;;;;;;;4.43;3.17;;;11.70;99.90;11.40;96490.00;;;;5056348;28;20200;-54
2021/05/23 08:09:55;;;;;;;9.20;5.30;;;11.80;99.90;11.50;96484.00;;;;5065252;28;20687;-56
2021/05/23 08:12:44;;;;;;;4.70;4.30;;;11.80;99.90;11.70;96496.00;;;;5066119;28;20499;-53
2021/05/23 08:15:33;;;;;;;3.70;3.40;;;12.00;99.90;11.50;96512.00;;;;5066232;28;20199;-56
2021/05/23 08:18:28;;;;;;;2.40;2.30;;;12.00;99.90;11.50;96525.00;;;;5054148;28;20214;-55
2021/05/23 08:21:16;;;;;;;3.40;2.43;;;12.00;99.90;11.40;96520.00;;;;5064907;28;20211;-54
2021/05/23 08:24:07;;;;;;;3.23;2.73;;;12.00;99.90;11.40;96515.00;;;;5066005;28;20242;-53
2021/05/23 08:26:55;;;;;;;3.23;2.63;;;11.90;99.90;11.40;96507.00;;;;5066061;28;20202;-52
2021/05/23 08:29:44;;;;;;;3.00;2.30;;;11.90;99.90;11.40;96514.00;;;;5067440;28;20208;-52
2021/05/23 08:32:33;;;;;;;5.93;2.60;;;11.90;99.90;11.20;96537.00;;;;5065296;28;20710;-50
2021/05/23 08:35:21;;;;;;;3.00;2.70;;;11.90;99.90;11.20;96551.00;;;;5064412;28;20192;-54
2021/05/23 08:38:10;;;;;;;2.83;2.43;;;11.90;99.90;11.30;96544.00;;;;5066143;28;20204;-52
2021/05/23 08:40:58;;;;;;;2.07;1.87;;;11.80;99.90;11.20;96539.00;;;;5057676;28;20204;-55
2021/05/23 08:43:49;;;;;;;1.73;1.37;;;11.80;99.90;11.20;96543.00;;;;5054137;28;20212;-54
2021/05/23 08:46:39;;;;;;;2.57;1.00;;;11.80;99.90;11.10;96546.00;;;;5051978;28;20223;-53
2021/05/23 08:49:28;;;;;;;1.97;1.50;;;11.80;99.90;11.20;96538.00;;;;5056544;28;20221;-52
2021/05/23 08:52:18;;;;;;;1.13;1.03;;;11.70;99.90;11.20;96551.00;;;;5056848;28;20214;-54
2021/05/23 08:55:09;;;;;;;0.87;0.87;;;11.70;99.90;10.80;96596.00;;;;5061369;28;20609;-53
2021/05/23 08:57:59;;;;;;;1.17;0.80;;;11.70;99.90;10.90;96591.00;;;;5062575;28;20595;-54
2021/05/23 09:00:48;;;;;;;1.67;0.83;;;11.60;99.90;11.10;96544.00;;;;5066960;28;20203;-55
2021/05/23 09:03:37;;;;;;;0.63;0.60;;;11.60;99.90;11.20;96584.00;;;;5056674;28;20298;-51
2021/05/23 09:06:30;;;;;;;1.27;0.73;;;11.60;99.90;11.00;96581.00;;;;5068996;28;20224;-55
2021/05/23 09:09:19;;;;;;;0.80;0.80;;;11.60;99.90;11.10;96588.00;;;;5069040;28;20712;-53
2021/05/23 09:12:10;;;;;;;1.10;1.00;;;11.60;99.90;11.00;96586.00;;;;5067790;28;20226;-55
2021/05/23 09:14:58;;;;;;;1.00;1.00;;;11.60;99.90;11.20;96593.00;;;;5070114;28;20219;-55
2021/05/23 09:17:47;;;;;;;1.67;0.93;;;11.60;99.90;11.20;96594.00;;;;5068414;28;20207;-55
2021/05/23 09:20:40;;;;;;;1.33;1.23;;;11.70;99.90;11.30;96591.00;;;;5068104;28;20200;-53
2021/05/23 09:23:28;;;;;;;1.20;1.10;;;11.70;99.90;11.40;96598.00;;;;5067974;28;20223;-56
2021/05/23 09:26:20;;;;;;;1.20;0.90;;;11.80;99.90;11.40;96603.00;;;;5064153;28;20231;-51
2021/05/23 09:29:12;;;;;;;2.50;1.63;;;11.80;99.90;11.20;96619.00;;;;5062201;28;20201;-54
2021/05/23 09:32:04;;;;;;;1.83;1.27;;;11.80;99.90;10.80;96635.00;;;;5068308;28;20215;-54
2021/05/23 09:35:03;;;;;;;1.57;1.00;;;11.70;99.90;10.80;96636.00;;;;5055429;28;20243;-54
2021/05/23 09:38:02;;;;;;;0.93;0.67;;;11.60;99.90;10.30;96662.00;;;;5056059;28;20570;-55
2021/05/23 09:40:51;;;;;;;0.83;0.80;;;11.50;99.90;10.50;96644.00;;;;5065042;28;20234;-51
2021/05/23 09:43:39;;;;;;;2.00;0.30;;;11.30;99.90;10.20;96664.00;;;;5061033;28;20216;-55
2021/05/23 09:46:27;;;;;;;0.20;0.20;;;11.10;99.90;10.40;96664.00;;;;5052746;28;20220;-55
2021/05/23 09:49:16;;;;;;;0.30;0.30;;;11.10;99.90;10.30;96669.00;;;;5059245;28;20210;-53
2021/05/23 09:52:05;;;;;;;0.30;0.27;;;11.00;99.90;10.20;96677.00;;;;5063469;28;20244;-54
2021/05/23 09:54:57;;;;;;;2.30;2.13;;;11.00;99.90;10.00;96669.00;;;;5056034;28;21170;-51
2021/05/23 09:57:46;;;;;;;2.63;2.50;;;10.80;99.90;10.40;96672.00;;;;5068398;28;20204;-54
2021/05/23 10:00:40;;;;;;;1.17;1.13;;;10.80;99.90;10.60;96682.00;;;;5068897;28;20216;-53
2021/05/23 10:03:31;;;;;;;1.80;1.40;;;11.00;99.90;10.80;96702.00;;;;5064479;28;20216;-53
2021/05/23 10:06:26;;;;;;;2.67;0.80;;;11.10;99.90;10.70;96708.00;;;;5064383;28;20661;-52
2021/05/23 10:09:15;;;;;;;1.37;0.90;;;11.20;99.90;11.30;96704.00;;;;5069325;28;20208;-50
2021/05/23 10:12:08;;;;;;;1.00;0.40;;;11.40;99.90;11.60;96701.00;;;;5056755;28;20215;-53
2021/05/23 10:14:56;;;;;;;1.37;1.27;;;11.70;99.90;12.50;96674.00;;;;5065672;28;20233;-53
2021/05/23 10:17:48;;;;;;;1.53;1.33;;;12.10;99.90;13.00;96652.00;;;;5064284;28;20227;-53
2021/05/23 10:20:38;;;;;;;3.80;0.70;;;12.50;99.90;13.80;96664.00;;;;5066679;28;20216;-56
2021/05/23 10:23:32;;;;;;;0.87;0.60;;;13.10;99.90;13.40;96707.00;;;;5057008;28;20220;-55
2021/05/23 10:26:25;;;;;;;3.17;0.47;;;13.40;99.90;13.30;96728.00;;;;5063112;28;20216;-55
2021/05/23 10:29:15;;;;;;;0.53;0.40;;;13.50;99.90;13.50;96743.00;;;;5067441;28;20218;-52
2021/05/23 10:32:08;;;;;;;0.70;0.70;;;13.60;99.90;13.70;96749.00;;;;5059978;28;20687;-52
2021/05/23 10:34:58;;;;;;;0.40;0.23;;;13.80;99.90;13.80;96731.00;;;;5056868;28;20208;-55
2021/05/23 10:37:49;;;;;;;0.70;0.30;;;14.00;99.90;13.00;96736.00;;;;5068062;28;20222;-54
2021/05/23 10:40:50;;;;;;;1.23;0.43;;;13.90;99.90;13.80;96706.00;;;;5067825;28;20208;-54
2021/05/23 10:43:38;;;;;;;0.57;0.50;;;14.00;99.90;14.70;96682.00;;;;5056452;28;20221;-54
2021/05/23 10:46:30;;;;;;;0.20;0.20;;;14.40;99.90;15.10;96674.00;;;;5053130;28;20220;-55
2021/05/23 10:49:18;;;;;;;0.33;0.33;;;14.80;99.90;15.70;96670.00;;;;5060683;28;20200;-56
2021/05/23 10:52:17;;;;;;;0.77;0.50;;;15.30;99.90;15.40;96720.00;;;;5062701;28;20561;-55
2021/05/23 10:55:07;;;;;;;0.43;0.37;;;15.40;99.90;15.50;96690.00;;;;5059319;28;20219;-52
2021/05/23 10:57:58;;;;;;;0.70;0.70;;;15.60;99.90;15.50;96721.00;;;;5050090;28;20212;-52
2021/05/23 11:00:52;;;;;;;3.57;0.30;;;15.70;99.90;15.60;96740.00;;;;5056086;28;20200;-54
2021/05/23 11:03:41;;;;;;;0.73;0.10;;;15.80;99.90;15.70;96739.00;;;;5067385;28;20228;-56
2021/05/23 11:06:29;;;;;;;0.30;0.20;;;15.90;99.90;16.30;96712.00;;;;5066879;28;20227;-52
2021/05/23 11:09:20;;;;;;;0.30;0.27;;;16.10;99.90;17.00;96674.00;;;;5068103;28;20207;-54
2021/05/23 11:12:12;;;;;;;0.30;0.20;;;16.60;99.90;17.10;96729.00;;;;5058701;28;20597;-52
2021/05/23 11:15:01;;;;;;;0.20;0.10;;;16.80;99.90;16.30;96730.00;;;;5065317;28;20227;-56
2021/05/23 11:17:52;;;;;;;0.20;0.10;;;17.00;99.90;14.70;96746.00;;;;5067491;28;20266;-54
2021/05/23 11:20:42;;;;;;;0.30;0.10;;;16.30;99.90;14.40;96750.00;;;;5068042;28;20208;-53
2021/05/23 11:23:32;;;;;;;1.40;0.20;;;15.80;99.90;13.90;96751.00;;;;5068624;28;20234;-56
2021/05/23 11:26:23;;;;;;;0.50;0.20;;;15.40;99.90;13.90;96753.00;;;;5066267;28;20744;-51
2021/05/23 11:29:12;;;;;;;0.97;0.20;;;15.10;99.90;14.50;96742.00;;;;5067121;28;20207;-53
2021/05/23 11:32:00;;;;;;;0.20;0.10;;;14.90;99.90;14.70;96754.00;;;;5056185;28;20238;-52
2021/05/23 11:34:48;;;;;;;0.40;0.20;;;15.00;99.90;14.10;96762.00;;;;5057484;28;20216;-55
2021/05/23 11:37:41;;;;;;;0.20;0.10;;;15.00;99.90;14.30;96781.00;;;;5066218;28;20199;-53
2021/05/23 11:40:35;;;;;;;0.57;0.50;;;14.90;99.90;14.30;96782.00;;;;5066781;28;20218;-51
2021/05/23 11:43:24;;;;;;;0.50;0.33;;;14.90;99.90;14.50;96793.00;;;;5066581;28;20227;-50
2021/05/23 11:46:12;;;;;;;0.60;0.20;;;14.90;99.90;14.50;96790.00;;;;5055735;28;20244;-52
2021/05/23 11:49:03;;;;;;;1.33;0.67;;;14.90;99.90;14.50;96798.00;;;;5065193;28;20227;-53
2021/05/23 11:51:58;;;;;;;0.20;0.17;;;14.90;99.90;14.20;96781.00;;;;5065924;28;20416;-52
2021/05/23 11:54:58;;;;;;;0.97;0.70;;;14.90;99.90;14.60;96771.00;;;;5066370;28;20196;-51
2021/05/23 11:57:49;;;;;;;0.90;0.53;;;15.00;99.90;15.10;96755.00;;;;5066243;28;20619;-51
2021/05/23 12:00:38;;;;;;;0.33;0.10;;;15.10;99.90;15.00;96744.00;;;;5067547;28;20696;-54
2021/05/23 12:03:27;;;;;;;0.53;0.53;;;15.40;99.90;15.10;96760.00;;;;5058637;28;20216;-52
2021/05/23 12:06:17;;;;;;;0.20;0.17;;;15.30;99.40;14.70;96764.00;;;;5059054;28;20742;-50
2021/05/23 12:09:10;;;;;;;0.20;0.10;;;15.40;97.00;15.20;96789.00;;;;5061523;28;20586;-50
2021/05/23 12:12:01;;;;;;;1.43;0.37;;;15.50;99.90;15.30;96807.00;;;;5064583;28;20204;-52
2021/05/23 12:14:50;;;;;;;1.60;0.20;;;15.50;99.30;15.40;96794.00;;;;5063278;28;20640;-52
2021/05/23 12:17:39;;;;;;;0.30;0.30;;;15.60;98.70;15.40;96811.00;;;;5065681;28;20199;-53
2021/05/23 12:20:28;;;;;;;0.37;0.20;;;15.70;96.90;15.20;96792.00;;;;5053657;28;20212;-55
2021/05/23 12:23:16;;;;;;;1.10;0.30;;;15.60;93.90;15.40;96803.00;;;;5065679;28;20243;-54
2021/05/23 12:26:11;;;;;;;1.47;0.20;;;15.70;95.20;15.70;96813.00;;;;5065004;28;20227;-54
2021/05/23 12:29:00;;;;;;;2.07;0.30;;;15.80;95.90;16.50;96773.00;;;;5065314;28;20199;-55
2021/05/23 12:31:48;;;;;;;1.67;1.57;;;16.10;97.50;16.90;96807.00;;;;5066173;28;20275;-54
2021/05/23 12:34:48;;;;;;;0.80;0.43;;;16.50;97.70;16.80;96796.00;;;;5058523;28;20203;-53
2021/05/23 12:37:37;;;;;;;0.50;0.40;;;16.70;95.70;16.40;96792.00;;;;5062768;28;20199;-52
2021/05/23 12:40:28;;;;;;;0.53;0.40;;;16.80;91.80;16.70;96807.00;;;;5067201;28;20212;-56